Time;durP1;ratioP1;P1;durP2;ratioP2;P2;SDS_P1;SDS_P2;PMS_P1;PMS_P2;Temp;Humidity;BMP_temperature;BMP_pressure;BME280_temperature;BME280_humidity;BME280_pressure;Samples;Min_cycle;Max_cycle;Signal;HPM_P1;HPM_P2
2023/11/26 00:01:03;;;;;;;1.27;1.17;;;;;;;3.12;83.14;96232.94;4825860;29;20430;-83
2023/11/26 00:03:37;;;;;;;1.50;1.40;;;;;;;3.14;83.34;96241.31;4825535;29;20471;-83
2023/11/26 00:06:12;;;;;;;2.63;1.83;;;;;;;3.14;83.39;96251.63;4825453;29;20577;-83
2023/11/26 00:08:47;;;;;;;1.85;1.60;;;;;;;3.17;84.10;96256.53;4825952;29;20054;-83
2023/11/26 00:11:17;;;;;;;1.50;1.40;;;;;;;3.19;83.42;96257.19;4825114;29;20065;-83
2023/11/26 00:13:52;;;;;;;2.92;1.77;;;;;;;3.21;84.16;96260.41;4825059;29;20140;-83
2023/11/26 00:16:22;;;;;;;8.38;2.05;;;;;;;3.24;84.07;96254.97;4826392;29;20054;-82
2023/11/26 00:18:52;;;;;;;1.50;1.40;;;;;;;3.28;84.01;96251.16;4825674;29;20054;-84
2023/11/26 00:21:26;;;;;;;2.05;1.50;;;;;;;3.31;84.24;96255.22;4825956;29;20047;-83
2023/11/26 00:24:02;;;;;;;2.75;1.63;;;;;;;3.34;84.30;96254.09;4825186;29;20058;-82
2023/11/26 00:26:34;;;;;;;2.15;1.42;;;;;;;3.35;84.16;96255.75;4824804;29;20058;-84
2023/11/26 00:29:07;;;;;;;2.75;1.30;;;;;;;3.35;83.73;96260.91;4825256;29;20145;-83
2023/11/26 00:31:38;;;;;;;3.67;1.25;;;;;;;3.31;83.15;96268.09;4825271;29;20120;-84
2023/11/26 00:34:10;;;;;;;2.30;1.15;;;;;;;3.29;83.92;96275.16;4825489;29;20115;-83
2023/11/26 00:36:41;;;;;;;1.63;1.02;;;;;;;3.28;84.37;96276.13;4825501;29;20418;-83
2023/11/26 00:39:13;;;;;;;2.45;1.55;;;;;;;3.27;84.71;96283.03;4825449;29;20062;-83
2023/11/26 00:41:46;;;;;;;2.45;1.23;;;;;;;3.26;84.36;96280.63;4825024;29;20062;-83
2023/11/26 00:44:25;;;;;;;2.97;1.58;;;;;;;3.24;83.59;96280.75;4825380;29;20051;-83
2023/11/26 00:46:54;;;;;;;3.28;1.98;;;;;;;3.23;83.62;96286.84;4825030;29;20505;-84
2023/11/26 00:49:25;;;;;;;2.60;1.38;;;;;;;3.23;83.62;96284.28;4825323;29;20060;-83
2023/11/26 00:51:55;;;;;;;4.00;1.50;;;;;;;3.24;84.42;96285.91;4824768;29;20077;-83
2023/11/26 00:54:28;;;;;;;1.90;1.48;;;;;;;3.25;85.09;96287.50;4825173;29;20062;-83
2023/11/26 00:56:59;;;;;;;4.43;1.88;;;;;;;3.22;84.89;96295.56;4825804;29;20065;-83
2023/11/26 00:59:31;;;;;;;2.75;1.75;;;;;;;3.21;84.77;96301.66;4825252;29;20110;-83
2023/11/26 01:02:00;;;;;;;2.70;1.50;;;;;;;3.16;84.77;96303.03;4825042;29;20433;-82
2023/11/26 01:04:31;;;;;;;4.40;2.30;;;;;;;3.14;83.46;96304.94;4824932;29;20054;-83
2023/11/26 01:07:01;;;;;;;2.38;1.80;;;;;;;3.10;83.69;96314.72;4825023;29;20116;-83
2023/11/26 01:09:30;;;;;;;8.27;2.35;;;;;;;3.09;84.82;96329.38;4824724;29;20054;-83
2023/11/26 01:12:03;;;;;;;2.05;1.60;;;;;;;3.12;85.80;96323.13;4825275;29;20425;-83
2023/11/26 01:14:35;;;;;;;2.72;1.85;;;;;;;3.12;86.71;96333.44;4825189;29;20521;-83
2023/11/26 01:17:04;;;;;;;24.05;3.40;;;;;;;3.13;86.80;96329.09;4825229;29;20142;-83
2023/11/26 01:19:34;;;;;;;4.72;2.45;;;;;;;3.13;87.07;96335.06;4825242;29;20051;-83
2023/11/26 01:22:05;;;;;;;49.15;6.45;;;;;;;3.13;87.12;96340.22;4824840;29;20058;-83
2023/11/26 01:24:36;;;;;;;12.95;2.60;;;;;;;3.12;86.31;96343.75;4824315;29;20057;-85
2023/11/26 01:27:05;;;;;;;13.57;3.75;;;;;;;3.12;86.76;96350.66;4824850;29;20046;-83
2023/11/26 01:29:38;;;;;;;7.70;2.80;;;;;;;3.13;86.49;96350.53;4825276;29;20493;-84
2023/11/26 01:32:08;;;;;;;3.35;2.42;;;;;;;3.14;86.46;96351.34;4902252;23;20050;-83
2023/11/26 01:34:36;;;;;;;3.95;2.53;;;;;;;3.14;85.47;96357.31;4825698;29;20532;-83
2023/11/26 01:37:05;;;;;;;3.20;2.58;;;;;;;3.09;85.24;96365.47;4825334;29;20127;-83
2023/11/26 01:39:32;;;;;;;4.13;2.38;;;;;;;3.08;85.22;96368.16;4828947;29;20114;-83
2023/11/26 01:42:00;;;;;;;3.97;2.60;;;;;;;3.06;84.78;96370.06;4813070;29;20094;-81
2023/11/26 01:44:30;;;;;;;4.50;2.28;;;;;;;3.02;84.58;96371.34;4811084;29;20111;-84
2023/11/26 01:47:03;;;;;;;2.83;2.47;;;;;;;2.98;84.04;96377.72;4810759;29;20063;-83
2023/11/26 01:49:31;;;;;;;;;;;;;;;2.99;84.51;96374.16;4810999;29;20062;-83
2023/11/26 01:52:01;;;;;;;5.90;2.38;;;;;;;2.91;83.47;96374.03;4810220;29;19968;-83
2023/11/26 01:54:31;;;;;;;2.95;2.60;;;;;;;2.86;82.98;96375.31;4809829;29;20078;-83
2023/11/26 01:57:02;;;;;;;6.05;3.20;;;;;;;2.81;83.38;96374.09;4809804;29;20181;-83
2023/11/26 01:59:32;;;;;;;3.88;2.25;;;;;;;2.78;83.56;96377.75;4812076;29;20562;-83
2023/11/26 02:02:02;;;;;;;3.50;2.67;;;;;;;2.77;83.40;96375.31;4810352;29;20059;-83
2023/11/26 02:04:32;;;;;;;3.25;2.50;;;;;;;2.77;83.71;96370.16;4810192;29;20054;-83
2023/11/26 02:07:02;;;;;;;3.83;2.60;;;;;;;2.75;84.03;96385.75;4809674;29;20108;-83
2023/11/26 02:09:32;;;;;;;3.95;3.22;;;;;;;2.77;84.40;96380.47;4810126;29;20079;-82
2023/11/26 02:12:01;;;;;;;3.03;2.58;;;;;;;2.80;84.38;96382.75;4809928;29;20055;-84
2023/11/26 02:14:30;;;;;;;4.03;3.40;;;;;;;2.78;84.42;96382.09;4810257;29;20054;-83
2023/11/26 02:17:00;;;;;;;5.32;3.20;;;;;;;2.76;83.58;96392.53;4821381;29;20054;-83
2023/11/26 02:19:34;;;;;;;3.97;3.45;;;;;;;2.75;83.39;96388.31;4827915;29;20580;-83
2023/11/26 02:22:07;;;;;;;4.85;3.25;;;;;;;2.73;83.55;96387.63;4827721;29;20118;-83
2023/11/26 02:24:42;;;;;;;5.60;3.08;;;;;;;2.72;83.11;96396.31;4827985;29;20103;-82
2023/11/26 02:27:12;;;;;;;5.47;3.40;;;;;;;2.71;83.20;96391.31;4828136;29;20467;-83
2023/11/26 02:29:41;;;;;;;4.95;3.45;;;;;;;2.69;83.28;96391.47;4828070;29;20065;-84
2023/11/26 02:32:10;;;;;;;5.20;3.95;;;;;;;2.67;83.31;96390.78;4827926;29;20066;-81
2023/11/26 02:34:41;;;;;;;4.90;3.55;;;;;;;2.68;83.84;96392.41;4828001;29;20084;-82
2023/11/26 02:37:10;;;;;;;4.93;3.58;;;;;;;2.67;83.27;96398.50;4828043;29;20058;-83
2023/11/26 02:39:42;;;;;;;5.53;3.03;;;;;;;2.65;83.60;96393.50;4827983;29;20051;-83
2023/11/26 02:42:12;;;;;;;4.75;3.47;;;;;;;2.65;83.60;96397.84;4827871;29;20091;-83
2023/11/26 02:44:40;;;;;;;4.32;2.90;;;;;;;2.61;82.83;96393.91;4829304;29;20058;-84
2023/11/26 02:47:09;;;;;;;5.82;2.90;;;;;;;2.59;83.55;96394.03;4827794;29;20062;-83
2023/11/26 02:49:38;;;;;;;5.55;3.90;;;;;;;2.58;83.41;96389.00;4826506;29;20062;-83
2023/11/26 02:52:09;;;;;;;4.38;3.42;;;;;;;2.56;83.27;96396.91;4827555;29;20054;-82
2023/11/26 02:54:38;;;;;;;6.07;3.10;;;;;;;2.54;83.43;96391.06;4827173;29;20054;-83
2023/11/26 02:57:09;;;;;;;5.35;3.78;;;;;;;2.53;83.61;96388.63;4826872;29;20528;-83
2023/11/26 02:59:39;;;;;;;4.05;3.05;;;;;;;2.54;83.86;96397.97;4827037;29;20064;-83
2023/11/26 03:02:08;;;;;;;5.93;3.53;;;;;;;2.53;84.04;96401.50;4827275;29;20062;-83
2023/11/26 03:04:38;;;;;;;3.97;2.72;;;;;;;2.51;84.47;96393.91;4826560;29;20054;-83
2023/11/26 03:07:07;;;;;;;3.53;3.10;;;;;;;2.50;83.83;96387.13;4826677;29;20066;-83
2023/11/26 03:12:56;;;;;;;4.82;3.58;;;;;;;2.51;84.19;96391.31;4826860;29;20494;-83
2023/11/26 03:15:18;;;;;;;3.95;2.92;;;;;;;2.51;83.73;96404.19;4827126;29;20058;-83
2023/11/26 03:17:49;;;;;;;4.53;3.28;;;;;;;2.50;84.43;96404.34;4811798;29;20058;-83
2023/11/26 03:20:19;;;;;;;4.88;2.97;;;;;;;2.47;84.21;96406.25;4808573;29;20589;-83
2023/11/26 03:22:48;;;;;;;5.28;3.10;;;;;;;2.46;84.19;96409.75;4808722;29;20059;-83
2023/11/26 03:25:18;;;;;;;5.65;3.95;;;;;;;2.45;84.03;96405.56;4808334;29;20061;-83
2023/11/26 03:27:51;;;;;;;5.93;3.67;;;;;;;2.45;84.55;96415.06;4807873;29;20532;-83
2023/11/26 03:30:21;;;;;;;5.22;2.85;;;;;;;2.45;84.31;96408.16;4808430;29;20092;-84
2023/11/26 03:32:50;;;;;;;7.68;3.40;;;;;;;2.44;84.20;96416.81;4808411;29;20115;-83
2023/11/26 03:35:20;;;;;;;5.47;3.20;;;;;;;2.43;84.09;96419.53;4808649;29;20131;-83
2023/11/26 03:37:49;;;;;;;6.15;3.58;;;;;;;2.42;84.57;96418.69;4808178;29;20601;-82
2023/11/26 03:40:19;;;;;;;6.82;4.07;;;;;;;2.41;84.00;96422.22;4807376;29;20709;-83
2023/11/26 03:42:49;;;;;;;4.63;3.58;;;;;;;2.38;84.47;96421.69;4807430;29;20505;-83
2023/11/26 03:45:18;;;;;;;40.78;6.68;;;;;;;2.39;85.68;96424.13;4807361;29;20112;-83
2023/11/26 03:47:47;;;;;;;5.20;3.80;;;;;;;2.42;86.97;96423.84;4807705;29;20051;-83
2023/11/26 03:50:18;;;;;;;61.22;7.72;;;;;;;2.42;87.45;96420.47;4807508;29;20410;-83
2023/11/26 03:52:49;;;;;;;6.60;4.17;;;;;;;2.40;86.82;96430.88;4808237;29;20080;-83
2023/11/26 03:55:19;;;;;;;9.95;3.88;;;;;;;2.41;86.86;96431.72;4807833;29;20298;-83
2023/11/26 03:57:49;;;;;;;4.78;3.17;;;;;;;2.38;86.27;96426.81;4807854;29;20055;-82
2023/11/26 04:00:18;;;;;;;9.68;4.20;;;;;;;2.31;84.76;96439.41;4807326;29;20055;-83
2023/11/26 04:02:48;;;;;;;7.05;4.45;;;;;;;2.29;85.53;96438.75;4807871;29;20057;-83
2023/11/26 04:05:17;;;;;;;48.30;8.23;;;;;;;2.36;87.56;96445.00;4807495;29;20130;-83
2023/11/26 04:07:46;;;;;;;4.63;3.88;;;;;;;2.40;87.21;96448.91;4807999;29;20146;-83
2023/11/26 04:10:14;;;;;;;42.67;6.18;;;;;;;2.39;87.33;96447.28;4807602;29;20051;-84
2023/11/26 04:12:56;;;;;;;5.82;4.68;;;;;;;2.41;88.16;96452.31;4807482;29;20086;-84
2023/11/26 04:15:26;;;;;;;28.85;7.07;;;;;;;2.42;87.91;96453.94;4807767;29;20112;-83
2023/11/26 04:17:54;;;;;;;20.33;6.15;;;;;;;2.45;88.77;96446.75;4825315;29;20054;-83
2023/11/26 04:20:23;;;;;;;7.85;4.40;;;;;;;2.44;87.81;96455.41;4825931;29;20134;-83
2023/11/26 04:22:52;;;;;;;7.97;4.35;;;;;;;2.44;87.51;96449.47;4825545;29;20502;-83
2023/11/26 04:25:21;;;;;;;7.82;4.10;;;;;;;2.45;87.55;96459.63;4825128;29;20054;-83
2023/11/26 04:27:50;;;;;;;22.73;4.80;;;;;;;2.46;88.25;96461.25;4825532;29;20076;-83
2023/11/26 04:30:21;;;;;;;23.73;5.85;;;;;;;2.50;88.79;96469.53;4825189;29;20475;-83
2023/11/26 04:32:50;;;;;;;22.45;5.45;;;;;;;2.51;88.29;96472.91;4825467;29;20074;-81
2023/11/26 04:35:19;;;;;;;18.48;8.05;;;;;;;2.50;87.98;96476.44;4825425;29;20086;-84
2023/11/26 04:37:48;;;;;;;19.42;11.30;;;;;;;2.47;87.33;96475.75;4825690;29;20088;-83
2023/11/26 04:40:18;;;;;;;18.08;11.93;;;;;;;2.47;87.01;96480.91;4825215;29;20066;-83
2023/11/26 04:42:48;;;;;;;36.50;12.13;;;;;;;2.50;87.73;96481.59;4825668;29;20140;-83
2023/11/26 04:45:17;;;;;;;18.73;7.75;;;;;;;2.54;88.40;96482.97;4825304;29;20058;-83
2023/11/26 04:47:47;;;;;;;8.88;5.13;;;;;;;2.55;87.64;96490.53;4825667;29;20058;-83
2023/11/26 04:50:18;;;;;;;16.23;5.85;;;;;;;2.57;88.07;96487.81;4825321;29;20076;-83
2023/11/26 04:52:47;;;;;;;11.25;4.40;;;;;;;2.63;89.21;96492.44;4825622;29;20067;-83
2023/11/26 04:55:19;;;;;;;5.75;3.75;;;;;;;2.61;88.21;96502.88;4825540;29;20066;-83
2023/11/26 04:57:49;;;;;;;4.82;3.58;;;;;;;2.58;86.87;96494.59;4824840;29;20065;-83
2023/11/26 05:00:17;;;;;;;5.22;4.03;;;;;;;2.58;86.71;96492.84;4825199;29;20055;-82
2023/11/26 05:02:50;;;;;;;4.38;3.90;;;;;;;2.58;86.47;96500.56;4825263;29;20062;-83
2023/11/26 05:05:19;;;;;;;7.05;4.20;;;;;;;2.59;85.77;96509.91;4825205;29;20506;-84
2023/11/26 05:07:48;;;;;;;6.28;3.78;;;;;;;2.58;85.56;96505.72;4825128;29;20062;-82
2023/11/26 05:10:16;;;;;;;6.35;4.20;;;;;;;2.60;85.61;96513.28;4825377;29;20054;-83
2023/11/26 05:12:46;;;;;;;6.05;4.22;;;;;;;2.61;85.68;96520.09;4826567;29;20057;-82
2023/11/26 05:15:14;;;;;;;11.80;6.53;;;;;;;2.61;85.61;96514.94;4828809;29;20081;-83
2023/11/26 05:17:43;;;;;;;8.82;5.43;;;;;;;2.59;85.09;96532.28;4813549;29;20115;-83
2023/11/26 05:20:24;;;;;;;7.10;4.60;;;;;;;2.55;83.84;96531.72;4813162;29;20066;-82
2023/11/26 05:22:53;;;;;;;7.35;4.93;;;;;;;2.53;84.53;96533.63;4799578;29;20063;-82
2023/11/26 05:25:22;;;;;;;5.03;4.07;;;;;;;2.54;84.54;96539.59;4796639;29;20056;-84
2023/11/26 05:27:50;;;;;;;6.47;4.50;;;;;;;2.53;84.21;96540.53;4793562;29;20577;-84
2023/11/26 05:30:20;;;;;;;13.00;5.57;;;;;;;2.55;85.30;96552.31;4795528;29;20411;-83
2023/11/26 05:32:50;;;;;;;6.03;5.03;;;;;;;2.56;85.59;96548.81;4808547;29;20058;-83
2023/11/26 05:35:27;;;;;;;6.00;4.28;;;;;;;2.55;84.17;96548.94;4810962;29;20075;-84
2023/11/26 05:40:52;;;;;;;6.18;4.60;;;;;;;2.61;85.41;96566.44;5125445;23;20079;-81
2023/11/26 05:43:21;;;;;;;20.05;5.75;;;;;;;2.62;85.56;96562.91;4867421;29;20053;-79
2023/11/26 05:45:55;;;;;;;5.50;4.63;;;;;;;2.61;84.86;96572.41;4868310;29;20102;-82
2023/11/26 05:48:23;;;;;;;5.95;4.75;;;;;;;2.61;85.00;96571.59;4851831;29;20157;-80
2023/11/26 05:50:52;;;;;;;7.22;4.40;;;;;;;2.60;84.74;96564.81;4849555;29;20077;-79
2023/11/26 05:53:19;;;;;;;25.17;6.30;;;;;;;2.60;84.84;96567.38;4846047;29;20473;-81
2023/11/26 05:55:47;;;;;;;7.03;4.30;;;;;;;2.63;85.50;96569.69;4847698;29;20046;-80
2023/11/26 05:58:15;;;;;;;7.00;4.22;;;;;;;2.64;83.92;96581.63;4845710;29;20064;-81
2023/11/26 06:00:43;;;;;;;7.95;5.13;;;;;;;2.62;83.93;96578.34;4845004;29;20062;-79
2023/11/26 06:03:11;;;;;;;41.13;7.28;;;;;;;2.63;85.11;96580.00;4846493;29;20510;-80
2023/11/26 06:05:39;;;;;;;7.10;5.15;;;;;;;2.65;85.63;96578.13;4847242;29;20046;-79
2023/11/26 06:08:09;;;;;;;9.85;5.72;;;;;;;2.71;86.08;96581.91;4853986;29;20046;-80
2023/11/26 06:10:37;;;;;;;18.48;7.13;;;;;;;2.75;86.38;96578.91;4845662;29;20064;-79
2023/11/26 06:13:04;;;;;;;7.90;5.45;;;;;;;2.75;85.90;96581.50;4861087;29;20136;-80
2023/11/26 06:15:32;;;;;;;15.85;6.22;;;;;;;2.73;85.98;96583.38;4862929;29;20157;-79
2023/11/26 06:17:59;;;;;;;6.22;5.03;;;;;;;2.73;85.97;96578.25;4863078;29;20053;-79
2023/11/26 06:20:28;;;;;;;15.75;5.55;;;;;;;2.72;86.77;96581.78;4863862;29;20053;-78
2023/11/26 06:22:55;;;;;;;12.80;7.13;;;;;;;2.74;86.67;96581.66;4862749;29;20057;-79
2023/11/26 06:25:24;;;;;;;7.18;5.50;;;;;;;2.75;85.83;96578.91;4846466;29;20060;-81
2023/11/26 06:27:53;;;;;;;8.75;5.97;;;;;;;2.75;85.89;96578.91;4844901;29;20145;-81
2023/11/26 06:30:21;;;;;;;9.23;5.65;;;;;;;2.77;86.16;96582.19;4845003;29;20114;-82
2023/11/26 06:32:52;;;;;;;10.45;6.15;;;;;;;2.82;86.54;96584.34;4845431;29;20057;-82
2023/11/26 06:35:21;;;;;;;20.55;7.25;;;;;;;2.87;87.51;96587.38;4845588;29;20050;-83
2023/11/26 06:37:51;;;;;;;12.27;6.43;;;;;;;2.89;87.84;96595.78;4845753;29;20136;-81
2023/11/26 06:40:20;;;;;;;9.90;6.75;;;;;;;2.87;87.39;96585.59;4848735;29;20054;-80
2023/11/26 06:42:49;;;;;;;44.35;10.20;;;;;;;2.86;86.78;96596.03;4849354;29;20050;-81
2023/11/26 06:45:17;;;;;;;9.90;6.07;;;;;;;2.81;86.15;96590.47;4850992;29;20050;-81
2023/11/26 06:47:44;;;;;;;11.85;6.25;;;;;;;2.81;86.49;96604.16;4850133;29;20493;-81
2023/11/26 06:50:12;;;;;;;44.95;11.20;;;;;;;2.83;87.45;96604.84;4848792;29;20061;-81
2023/11/26 06:52:39;;;;;;;16.05;6.13;;;;;;;2.83;87.36;96599.69;4849172;29;20050;-81
2023/11/26 06:55:09;;;;;;;38.08;10.13;;;;;;;2.80;87.43;96615.41;4847982;29;20106;-82
2023/11/26 06:57:36;;;;;;;72.10;11.05;;;;;;;2.82;88.21;96617.84;4845685;29;20402;-82
2023/11/26 07:00:07;;;;;;;9.13;6.75;;;;;;;2.81;87.46;96623.97;4844110;29;20058;-81
2023/11/26 07:02:35;;;;;;;15.90;7.32;;;;;;;2.79;87.54;96608.63;4846128;29;20140;-82
2023/11/26 07:05:04;;;;;;;11.32;6.43;;;;;;;2.79;87.65;96624.09;4845151;29;20078;-79
2023/11/26 07:07:32;;;;;;;9.23;6.70;;;;;;;2.81;87.82;96623.97;4861614;29;20515;-79
2023/11/26 07:09:59;;;;;;;9.07;6.85;;;;;;;2.82;87.40;96623.84;4859856;29;20113;-79
2023/11/26 07:12:29;;;;;;;11.77;6.95;;;;;;;2.82;86.99;96621.25;4844630;29;20054;-81
2023/11/26 07:14:57;;;;;;;44.50;10.77;;;;;;;2.82;87.73;96623.84;4862542;29;20057;-80
2023/11/26 07:17:27;;;;;;;39.08;11.35;;;;;;;2.86;88.68;96617.47;4863465;29;20055;-82
2023/11/26 07:19:55;;;;;;;11.93;6.93;;;;;;;2.87;88.40;96633.75;4855382;29;20516;-80
2023/11/26 07:22:23;;;;;;;9.80;7.85;;;;;;;2.87;87.56;96623.44;4854855;29;20053;-80
2023/11/26 07:24:50;;;;;;;60.55;11.75;;;;;;;2.86;87.93;96627.78;4860855;29;20431;-79
2023/11/26 07:27:18;;;;;;;17.77;8.73;;;;;;;2.89;88.62;96630.06;4856414;29;20053;-80
2023/11/26 07:29:45;;;;;;;13.35;7.70;;;;;;;2.92;88.33;96629.00;4846144;29;20050;-80
2023/11/26 07:32:13;;;;;;;14.75;8.02;;;;;;;2.92;88.05;96636.72;4843897;29;20271;-81
2023/11/26 07:34:43;;;;;;;11.80;8.52;;;;;;;2.95;88.43;96640.78;4843057;29;20114;-80
2023/11/26 07:37:11;;;;;;;11.57;8.10;;;;;;;2.97;88.06;96633.75;4841963;29;20093;-80
2023/11/26 07:39:39;;;;;;;11.55;7.70;;;;;;;2.96;88.02;96634.69;4842396;29;20145;-80
2023/11/26 07:42:07;;;;;;;13.75;7.68;;;;;;;2.95;88.51;96640.78;4842554;29;20085;-80
2023/11/26 07:44:35;;;;;;;11.88;7.72;;;;;;;2.96;88.45;96639.84;4842402;29;20061;-80
2023/11/26 07:47:03;;;;;;;11.93;8.00;;;;;;;2.99;88.38;96631.84;4842081;29;20050;-81
2023/11/26 07:49:31;;;;;;;16.98;8.75;;;;;;;3.01;88.44;96635.09;4841829;29;20144;-80
2023/11/26 07:52:00;;;;;;;25.05;9.88;;;;;;;3.02;88.86;96653.03;4842970;29;20513;-81
2023/11/26 07:54:27;;;;;;;23.83;10.38;;;;;;;3.05;89.63;96642.44;4843438;29;20145;-81
2023/11/26 07:56:55;;;;;;;8.20;6.15;;;;;;;3.07;88.50;96644.88;4842956;29;20520;-80
2023/11/26 07:59:23;;;;;;;28.35;8.85;;;;;;;3.05;87.65;96650.16;4856976;29;20132;-81
2023/11/26 08:01:51;;;;;;;21.13;9.25;;;;;;;3.07;88.78;96650.03;4861130;29;20063;-81
2023/11/26 08:04:19;;;;;;;31.40;11.20;;;;;;;3.08;89.00;96649.06;4861276;29;20140;-81
2023/11/26 08:06:48;;;;;;;48.00;10.65;;;;;;;3.10;89.85;96654.91;4861176;29;20081;-81
2023/11/26 08:09:17;;;;;;;8.48;5.97;;;;;;;3.13;89.58;96670.13;4861389;29;20504;-81
2023/11/26 08:11:46;;;;;;;7.47;5.82;;;;;;;3.11;88.31;96666.88;4861730;29;20056;-81
2023/11/26 08:14:14;;;;;;;7.55;6.38;;;;;;;3.05;87.05;96669.97;4861386;29;20096;-80
2023/11/26 08:16:43;;;;;;;7.82;5.82;;;;;;;3.00;86.06;96670.38;4860999;29;20081;-81
2023/11/26 08:19:16;;;;;;;9.38;5.78;;;;;;;2.96;85.63;96673.34;4861270;29;20061;-80
2023/11/26 08:21:44;;;;;;;12.10;7.03;;;;;;;2.96;85.97;96675.94;4861052;29;20527;-81
2023/11/26 08:24:17;;;;;;;9.75;7.00;;;;;;;2.94;85.65;96680.41;4861012;29;20144;-80
2023/11/26 08:26:47;;;;;;;8.18;6.28;;;;;;;2.88;84.42;96679.97;4860695;29;20124;-80
2023/11/26 08:29:19;;;;;;;10.13;5.93;;;;;;;2.85;83.97;96682.81;4861234;29;20057;-81
2023/11/26 08:31:47;;;;;;;8.00;6.05;;;;;;;2.80;83.94;96678.97;4861037;29;20077;-81
2023/11/26 08:34:16;;;;;;;7.35;5.55;;;;;;;2.77;84.04;96677.50;4860974;29;20053;-81
2023/11/26 08:36:44;;;;;;;7.82;5.72;;;;;;;2.76;83.82;96683.59;4860480;29;20266;-80
2023/11/26 08:39:18;;;;;;;9.38;6.40;;;;;;;2.76;84.26;96683.59;4860939;29;20057;-80
2023/11/26 08:41:48;;;;;;;9.07;6.80;;;;;;;2.77;84.55;96682.66;4860810;29;20064;-80
2023/11/26 08:44:15;;;;;;;9.30;6.13;;;;;;;2.75;84.10;96684.53;4860952;29;20417;-81
2023/11/26 08:46:43;;;;;;;6.57;5.43;;;;;;;2.76;83.71;96685.38;4859823;29;20069;-80
2023/11/26 08:49:16;;;;;;;7.75;6.28;;;;;;;2.77;84.14;96684.41;4860937;29;20537;-80
2023/11/26 08:51:44;;;;;;;11.98;5.78;;;;;;;2.78;84.93;96689.44;4861095;29;20145;-80
2023/11/26 08:54:11;;;;;;;5.15;4.38;;;;;;;2.83;85.38;96697.59;4860903;29;20060;-81
2023/11/26 08:56:39;;;;;;;5.82;4.85;;;;;;;2.87;85.66;96686.06;4873308;29;20056;-82
2023/11/26 08:59:08;;;;;;;70.35;11.32;;;;;;;2.94;86.79;96696.66;4883790;29;20049;-81
2023/11/26 09:01:37;;;;;;;7.85;5.32;;;;;;;3.00;87.64;96693.56;4883448;29;20060;-83
2023/11/26 09:04:07;;;;;;;6.05;4.47;;;;;;;3.06;87.69;96689.63;4867172;29;20108;-81
2023/11/26 09:06:34;;;;;;;7.88;5.20;;;;;;;3.11;88.16;96687.50;4860768;29;20064;-80
2023/11/26 09:09:02;;;;;;;6.22;4.75;;;;;;;3.13;88.57;96679.59;4860494;29;20057;-80
2023/11/26 09:11:30;;;;;;;9.80;4.72;;;;;;;3.14;88.22;96689.78;4860313;29;20056;-81
2023/11/26 09:13:58;;;;;;;5.93;4.93;;;;;;;3.16;88.59;96689.66;4860355;29;20149;-80
2023/11/26 09:16:31;;;;;;;9.35;5.35;;;;;;;3.20;88.77;96691.84;4860051;29;20060;-81
2023/11/26 09:19:00;;;;;;;10.82;6.00;;;;;;;3.23;89.06;96694.13;4860129;29;20590;-80
2023/11/26 09:21:28;;;;;;;6.97;5.55;;;;;;;3.27;89.06;96700.66;4860731;29;20058;-81
2023/11/26 09:23:56;;;;;;;7.45;5.57;;;;;;;3.30;89.21;96707.31;4860508;29;20527;-80
2023/11/26 09:26:28;;;;;;;7.30;4.70;;;;;;;3.28;87.80;96709.22;4860486;29;20057;-80
2023/11/26 09:28:56;;;;;;;7.97;5.55;;;;;;;3.24;87.47;96703.53;4860348;29;20097;-81
2023/11/26 09:31:27;;;;;;;12.20;5.55;;;;;;;3.26;88.23;96699.03;4860170;29;20136;-79
2023/11/26 09:33:56;;;;;;;27.85;6.88;;;;;;;3.27;88.13;96707.59;4860332;29;20724;-80
2023/11/26 09:36:24;;;;;;;4.90;4.22;;;;;;;3.27;87.39;96702.44;4860438;29;20050;-81
2023/11/26 09:38:52;;;;;;;6.88;4.85;;;;;;;3.25;87.17;96699.97;4860321;29;20088;-80
2023/11/26 09:41:20;;;;;;;6.82;5.18;;;;;;;3.28;87.83;96691.19;4859843;29;20058;-80
2023/11/26 09:43:48;;;;;;;6.45;5.22;;;;;;;3.32;88.06;96699.44;4860310;29;20061;-80
2023/11/26 09:46:16;;;;;;;7.40;5.30;;;;;;;3.34;88.05;96700.94;4876783;29;20109;-82
2023/11/26 09:48:44;;;;;;;5.82;4.80;;;;;;;3.35;88.21;96694.03;4881289;29;20053;-81
2023/11/26 09:51:14;;;;;;;6.18;4.70;;;;;;;3.36;87.89;96696.47;4879207;29;20049;-80
2023/11/26 09:53:42;;;;;;;7.95;5.50;;;;;;;3.35;87.90;96689.69;4863388;29;20054;-80
2023/11/26 09:56:11;;;;;;;7.13;5.75;;;;;;;3.31;87.44;96688.31;4862357;29;20140;-81
2023/11/26 09:58:39;;;;;;;8.30;5.70;;;;;;;3.31;87.57;96693.47;4861695;29;20072;-80
2023/11/26 10:01:07;;;;;;;12.30;6.05;;;;;;;3.28;86.93;96693.75;4864060;29;20057;-81
2023/11/26 10:03:56;;;;;;;12.07;6.97;;;;;;;3.28;86.36;96678.28;4864207;29;20057;-80
2023/11/26 10:06:26;;;;;;;10.07;6.32;;;;;;;3.26;86.51;96688.72;4863701;29;20663;-80
2023/11/26 10:08:53;;;;;;;15.63;8.18;;;;;;;3.23;86.49;96678.66;4863812;29;20119;-80
2023/11/26 10:11:22;;;;;;;16.83;8.98;;;;;;;3.22;86.37;96684.78;4863985;29;20067;-80
2023/11/26 10:13:51;;;;;;;16.52;9.38;;;;;;;3.24;86.57;96676.94;4863534;29;20053;-80
2023/11/26 10:16:29;;;;;;;9.60;6.20;;;;;;;3.22;86.41;96673.66;4863373;29;20571;-80
2023/11/26 10:18:57;;;;;;;11.07;6.72;;;;;;;3.23;87.16;96670.94;4863294;29;20066;-80
2023/11/26 10:21:26;;;;;;;10.38;6.82;;;;;;;3.29;88.55;96675.56;4863381;29;20049;-80
2023/11/26 10:23:54;;;;;;;11.15;6.88;;;;;;;3.35;88.36;96673.41;4863764;29;20085;-80
2023/11/26 10:26:26;;;;;;;10.93;7.35;;;;;;;3.38;88.17;96670.56;4863507;29;20053;-80
2023/11/26 10:29:01;;;;;;;33.88;13.90;;;;;;;3.43;89.55;96668.38;4863467;29;20144;-80
2023/11/26 10:31:29;;;;;;;14.18;9.40;;;;;;;3.45;88.39;96666.47;4863007;29;20053;-80
2023/11/26 10:34:08;;;;;;;12.77;8.32;;;;;;;3.47;87.61;96670.53;4863100;29;20053;-80
2023/11/26 10:36:37;;;;;;;10.85;6.22;;;;;;;3.50;87.90;96666.91;4863015;29;20077;-80
2023/11/26 10:39:08;;;;;;;7.75;5.95;;;;;;;3.55;88.48;96657.00;4863278;29;20053;-80
2023/11/26 10:41:37;;;;;;;8.18;5.88;;;;;;;3.57;88.31;96651.69;4863123;29;20096;-80
2023/11/26 10:44:06;;;;;;;9.30;5.07;;;;;;;3.59;87.58;96650.59;4862977;29;20118;-80
2023/11/26 10:46:35;;;;;;;6.10;4.70;;;;;;;3.58;86.00;96659.28;4862807;29;20053;-81
2023/11/26 10:49:09;;;;;;;21.15;5.90;;;;;;;3.58;86.46;96651.53;4862696;29;20088;-80
2023/11/26 10:51:43;;;;;;;8.45;4.88;;;;;;;3.60;85.42;96657.38;4862714;29;20113;-80
2023/11/26 10:54:17;;;;;;;6.45;4.57;;;;;;;3.60;85.86;96657.38;4863026;29;20065;-81
2023/11/26 10:56:49;;;;;;;12.88;6.63;;;;;;;3.63;85.51;96657.13;4862269;29;20049;-80
2023/11/26 10:59:19;;;;;;;7.38;5.07;;;;;;;3.64;85.87;96656.16;4862785;29;20049;-80
2023/11/26 11:01:47;;;;;;;20.70;6.28;;;;;;;3.68;86.65;96646.38;4862406;29;20064;-80
2023/11/26 11:04:16;;;;;;;6.07;4.82;;;;;;;3.71;86.37;96643.53;4862671;29;20105;-80
2023/11/26 11:06:45;;;;;;;9.55;5.03;;;;;;;3.68;84.87;96638.66;4862659;29;20053;-80
2023/11/26 11:09:24;;;;;;;7.57;5.20;;;;;;;3.69;86.45;96640.28;4861877;29;20064;-80
2023/11/26 11:12:01;;;;;;;9.02;4.43;;;;;;;3.72;85.17;96629.69;4862016;29;20085;-80
2023/11/26 11:14:30;;;;;;;7.30;5.95;;;;;;;3.75;86.45;96633.75;4862477;29;20081;-80
2023/11/26 11:16:58;;;;;;;17.33;6.63;;;;;;;3.79;86.70;96628.19;4861823;29;20053;-80
2023/11/26 11:19:49;;;;;;;9.77;6.03;;;;;;;3.80;87.05;96636.72;4862329;29;20465;-80
2023/11/26 11:22:18;;;;;;;8.05;5.35;;;;;;;3.82;87.18;96637.41;4861990;29;20678;-79
2023/11/26 11:24:46;;;;;;;11.25;4.88;;;;;;;3.87;87.25;96637.78;4862381;29;20065;-81
2023/11/26 11:27:14;;;;;;;5.35;4.13;;;;;;;3.94;86.61;96638.88;4862042;29;20061;-80
2023/11/26 11:29:42;;;;;;;4.38;3.95;;;;;;;4.02;86.73;96649.31;4861739;29;20045;-80
2023/11/26 11:32:10;;;;;;;6.18;4.72;;;;;;;4.09;87.38;96647.81;4861800;29;20595;-80
2023/11/26 11:34:37;;;;;;;6.32;3.90;;;;;;;4.15;87.27;96650.78;4862201;29;20077;-81
2023/11/26 11:37:08;;;;;;;7.75;3.38;;;;;;;4.16;86.02;96652.41;4862110;29;20059;-80
2023/11/26 11:39:49;;;;;;;5.68;3.72;;;;;;;4.18;86.58;96653.09;4862125;29;20057;-81
2023/11/26 11:42:21;;;;;;;4.82;3.17;;;;;;;4.20;86.32;96648.56;4862400;29;20553;-80
2023/11/26 11:44:50;;;;;;;3.45;2.67;;;;;;;4.21;86.09;96650.22;4862048;29;20140;-81
2023/11/26 11:47:42;;;;;;;2.58;2.35;;;;;;;4.24;85.68;96642.19;4861662;29;20679;-80
2023/11/26 11:50:14;;;;;;;3.63;2.22;;;;;;;4.26;85.58;96642.84;4848807;29;20561;-80
2023/11/26 11:52:42;;;;;;;3.50;2.28;;;;;;;4.28;85.42;96646.91;4862479;29;20084;-79
2023/11/26 11:55:54;;;;;;;4.65;3.15;;;;;;;4.32;86.41;96650.03;4861624;29;20062;-80
2023/11/26 11:58:22;;;;;;;3.53;2.13;;;;;;;4.31;84.80;96644.06;4861566;29;20077;-80